Terminal Aerodrome Forecast
Issued by NWS

Home | Current Version | Previous Version | Text Only | Print | Product List | Glossary On
Versions: 1 2 3 4 5 6 7 8 9 10 11 12 13
000
FTUS41 KAKQ 291700
TAFPHF
TAF
KPHF 291740Z 2918/3018 01007KT P6SM SCT030
     FM292000 04004KT P6SM SKC
     FM300300 00000KT P6SM SKC
     FM301400 02005KT P6SM SCT250=

USA.gov is the U.S. government's official web portal to all federal, state and local government web resources and services.